createdAt,value
2023-02-14T00:04:45.286Z,16.85
2023-02-14T00:09:54.274Z,19.17
2023-02-14T00:20:34.237Z,19.08
2023-02-14T00:25:42.149Z,18.73
2023-02-14T00:30:52.287Z,17.73
2023-02-14T00:36:08.458Z,19.50
2023-02-14T00:41:20.830Z,18.80
2023-02-14T00:46:34.348Z,18.52
2023-02-14T00:51:39.967Z,18.35
2023-02-14T00:56:43.054Z,18.60
2023-02-14T01:01:45.851Z,18.90
2023-02-14T01:06:50.144Z,19.10
2023-02-14T01:11:53.085Z,18.95
2023-02-14T01:16:56.272Z,18.33
2023-02-14T01:22:04.133Z,18.58
2023-02-14T01:27:06.960Z,19.60
2023-02-14T01:32:10.603Z,18.52
2023-02-14T01:37:17.098Z,18.55
2023-02-14T01:42:20.192Z,20.92
2023-02-14T01:47:23.926Z,19.98
2023-02-14T01:52:35.943Z,20.25
2023-02-14T01:57:47.526Z,19.33
2023-02-14T02:02:50.970Z,20.38
2023-02-14T02:08:02.386Z,20.85
2023-02-14T02:13:08.571Z,20.02
2023-02-14T02:18:17.538Z,21.25
2023-02-14T02:24:05.398Z,20.05
2023-02-14T02:29:48.131Z,20.67
2023-02-14T02:35:23.702Z,21.08
2023-02-14T02:40:43.724Z,20.25
2023-02-14T02:46:09.650Z,21.65
2023-02-14T02:51:41.528Z,20.20
2023-02-14T02:56:53.522Z,20.73
2023-02-14T03:02:02.378Z,20.05
2023-02-14T03:07:27.828Z,20.42
2023-02-14T03:13:11.864Z,19.73
2023-02-14T03:18:25.836Z,20.58
2023-02-14T03:23:36.062Z,20.38
2023-02-14T03:28:47.256Z,22.35
2023-02-14T03:33:58.358Z,20.88
2023-02-14T03:39:08.631Z,20.75
2023-02-14T03:44:18.293Z,20.90
2023-02-14T03:49:24.913Z,21.88
2023-02-14T03:54:32.494Z,20.23
2023-02-14T03:59:36.412Z,21.40
2023-02-14T04:04:44.276Z,19.92
2023-02-14T04:09:48.736Z,19.70
2023-02-14T04:14:51.514Z,19.70
2023-02-14T04:19:54.511Z,20.95
2023-02-14T04:24:59.000Z,20.42
2023-02-14T04:30:01.819Z,20.67
2023-02-14T04:35:07.638Z,20.75
2023-02-14T04:40:17.046Z,22.08
2023-02-14T04:45:20.214Z,21.73
2023-02-14T04:50:25.842Z,20.95
2023-02-14T04:55:30.143Z,20.83
2023-02-14T05:00:32.972Z,20.92
2023-02-14T05:05:35.769Z,20.90
2023-02-14T05:10:41.044Z,20.95
2023-02-14T05:15:45.504Z,20.48
2023-02-14T05:20:50.506Z,19.98
2023-02-14T05:25:54.639Z,20.88
2023-02-14T05:30:58.899Z,21.08
2023-02-14T05:36:02.704Z,20.75
2023-02-14T05:41:07.324Z,18.58
2023-02-14T05:46:10.297Z,20.58
2023-02-14T05:51:13.387Z,20.33
2023-02-14T05:56:17.696Z,20.67
2023-02-14T06:01:20.567Z,19.48
2023-02-14T06:06:23.820Z,20.40
2023-02-14T06:11:28.040Z,20.05
2023-02-14T06:16:30.929Z,20.10
2023-02-14T06:21:33.712Z,20.58
2023-02-14T06:26:37.933Z,20.45
2023-02-14T06:31:40.834Z,19.60
2023-02-14T06:36:43.816Z,20.65
2023-02-14T06:41:48.507Z,18.65
2023-02-14T06:46:51.384Z,20.67
2023-02-14T06:51:54.121Z,19.10
2023-02-14T06:56:58.461Z,19.30
2023-02-14T07:02:01.299Z,17.85
2023-02-14T07:07:04.446Z,19.15
2023-02-14T07:12:08.852Z,18.95
2023-02-14T07:17:11.649Z,18.60
2023-02-14T07:22:14.519Z,17.30
2023-02-14T07:27:18.705Z,17.70
2023-02-14T07:32:21.525Z,17.80
2023-02-14T07:37:24.542Z,15.75
2023-02-14T07:42:29.308Z,16.65
2023-02-14T07:47:32.139Z,16.20
2023-02-14T07:52:34.902Z,16.17
2023-02-14T07:57:39.390Z,16.25
2023-02-14T08:02:42.316Z,15.82
2023-02-14T08:07:45.276Z,16.52
2023-02-14T08:13:01.233Z,16.25
2023-02-14T08:18:03.976Z,15.35
2023-02-14T08:23:06.808Z,16.48
2023-02-14T08:28:10.940Z,14.88
2023-02-14T08:33:13.712Z,16.35
2023-02-14T08:38:16.583Z,16.85
2023-02-14T08:43:21.000Z,15.95
2023-02-14T08:48:25.242Z,14.70
2023-02-14T08:53:28.081Z,15.48
2023-02-14T08:58:32.866Z,15.02
2023-02-14T09:03:38.270Z,14.90
2023-02-14T09:08:41.574Z,13.90
2023-02-14T09:13:46.305Z,15.68
2023-02-14T09:18:49.766Z,14.50
2023-02-14T09:23:52.757Z,14.45
2023-02-14T09:28:57.657Z,14.13
2023-02-14T09:34:17.818Z,14.02
2023-02-14T09:39:20.618Z,13.43
2023-02-14T09:44:31.477Z,14.65
2023-02-14T09:49:39.616Z,18.55
2023-02-14T09:54:44.715Z,13.80
2023-02-14T09:59:54.330Z,14.30
2023-02-14T10:05:06.787Z,15.55
2023-02-14T10:10:15.133Z,15.32
2023-02-14T10:15:23.088Z,14.93
2023-02-14T10:20:31.187Z,15.30
2023-02-14T10:25:42.008Z,15.68
2023-02-14T10:31:00.228Z,15.23
2023-02-14T10:36:07.247Z,14.68
2023-02-14T10:41:29.469Z,15.27
2023-02-14T10:46:42.320Z,15.93
2023-02-14T10:51:50.416Z,16.67
2023-02-14T10:56:58.544Z,16.55
2023-02-14T11:02:03.398Z,15.75
2023-02-14T11:07:13.692Z,15.50
2023-02-14T11:12:38.503Z,15.75
2023-02-14T11:17:43.433Z,16.10
2023-02-14T11:22:46.997Z,16.48
2023-02-14T11:27:52.726Z,15.75
2023-02-14T11:32:57.434Z,15.10
2023-02-14T11:38:01.733Z,16.05
2023-02-14T11:43:20.246Z,16.60
2023-02-14T11:48:37.139Z,15.07
2023-02-14T11:53:47.107Z,16.88
2023-02-14T11:58:55.258Z,16.50
2023-02-14T12:04:04.074Z,16.35
2023-02-14T12:09:24.919Z,17.17
2023-02-14T12:14:30.070Z,17.75
2023-02-14T12:19:39.184Z,16.63
2023-02-14T12:24:50.906Z,17.15
2023-02-14T12:29:59.257Z,18.25
2023-02-14T12:35:14.430Z,17.67
2023-02-14T12:40:23.870Z,16.58
2023-02-14T12:45:44.629Z,16.77
2023-02-14T12:50:55.270Z,16.63
2023-02-14T12:56:06.619Z,15.95
2023-02-14T13:01:39.076Z,16.80
2023-02-14T13:06:49.300Z,15.73
2023-02-14T13:12:02.587Z,17.13
2023-02-14T13:17:12.897Z,15.32
2023-02-14T13:22:20.128Z,16.15
2023-02-14T13:27:25.504Z,15.43
2023-02-14T13:32:33.328Z,15.25
2023-02-14T13:37:38.179Z,15.25
2023-02-14T13:42:55.463Z,15.82
2023-02-14T13:48:05.604Z,15.63
2023-02-14T13:53:13.843Z,15.23
2023-02-14T13:58:21.655Z,17.23
2023-02-14T14:03:57.289Z,14.85
2023-02-14T14:09:01.701Z,15.15
2023-02-14T14:14:26.258Z,16.63
2023-02-14T14:19:39.758Z,15.07
2023-02-14T14:24:53.510Z,15.23
2023-02-14T14:29:58.525Z,15.30
2023-02-14T14:35:03.760Z,14.82
2023-02-14T14:40:09.579Z,14.68
2023-02-14T14:45:23.844Z,15.77
2023-02-14T14:50:29.723Z,15.65
2023-02-14T14:55:37.537Z,14.85
2023-02-14T15:00:42.462Z,14.73
2023-02-14T15:05:47.256Z,14.60
2023-02-14T15:10:55.736Z,13.90
2023-02-14T15:15:59.413Z,14.15
2023-02-14T15:21:04.495Z,15.20
2023-02-14T15:26:16.924Z,15.32
2023-02-14T15:31:20.143Z,14.55
2023-02-14T15:36:25.494Z,14.38
2023-02-14T15:41:29.601Z,14.13
2023-02-14T15:46:36.558Z,15.23
2023-02-14T15:51:40.615Z,14.38
2023-02-14T15:56:48.857Z,14.32
2023-02-14T16:01:54.489Z,14.57
2023-02-14T16:07:07.147Z,14.65
2023-02-14T16:12:30.869Z,13.88
2023-02-14T16:17:35.505Z,14.32
2023-02-14T16:22:38.353Z,14.13
2023-02-14T16:27:42.522Z,14.07
2023-02-14T16:32:50.726Z,12.95
2023-02-14T16:37:53.999Z,14.23
2023-02-14T16:42:59.137Z,13.95
2023-02-14T16:48:02.240Z,13.40
2023-02-14T16:53:07.054Z,14.40
2023-02-14T16:58:11.205Z,14.43
2023-02-14T17:03:13.932Z,13.90
2023-02-14T17:08:17.309Z,15.05
2023-02-14T17:13:24.789Z,13.85
2023-02-14T17:18:27.600Z,15.13
2023-02-14T17:23:30.333Z,13.77
2023-02-14T17:28:34.472Z,15.32
2023-02-14T17:33:37.271Z,13.80
2023-02-14T17:38:40.473Z,15.68
2023-02-14T17:43:44.616Z,15.73
2023-02-14T17:48:48.878Z,15.18
2023-02-14T17:53:52.200Z,15.32
2023-02-14T17:58:56.771Z,15.95
2023-02-14T18:03:59.787Z,16.80
2023-02-14T18:09:06.749Z,18.92
2023-02-14T18:14:11.157Z,15.90
2023-02-14T18:19:15.906Z,17.92
2023-02-14T18:24:18.706Z,18.23
2023-02-14T18:29:22.920Z,16.02
2023-02-14T18:34:25.787Z,15.93
2023-02-14T18:39:28.637Z,15.77
2023-02-14T18:44:33.417Z,17.45
2023-02-14T18:49:36.208Z,17.38
2023-02-14T18:54:39.624Z,17.85
2023-02-14T18:59:45.104Z,18.00
2023-02-14T19:04:47.956Z,18.05
2023-02-14T19:09:50.717Z,18.80
2023-02-14T19:14:56.115Z,20.83
2023-02-14T19:19:59.753Z,18.00
2023-02-14T19:25:02.537Z,16.17
2023-02-14T19:30:08.385Z,17.48
2023-02-14T19:35:11.811Z,17.48
2023-02-14T19:40:15.244Z,16.98
2023-02-14T19:45:19.766Z,18.40
2023-02-14T19:50:22.564Z,19.83
2023-02-14T19:55:27.570Z,20.52
2023-02-14T20:00:31.743Z,20.13
2023-02-14T20:05:38.237Z,19.25
2023-02-14T20:10:41.165Z,19.20
2023-02-14T20:15:45.651Z,19.63
2023-02-14T20:21:11.528Z,21.77
2023-02-14T20:26:15.853Z,19.95
2023-02-14T20:31:22.836Z,19.95
2023-02-14T20:36:27.104Z,19.77
2023-02-14T20:41:34.329Z,20.27
2023-02-14T20:46:38.981Z,20.67
2023-02-14T20:51:42.178Z,22.00
2023-02-14T20:56:45.312Z,20.77
2023-02-14T21:01:49.525Z,21.58
2023-02-14T21:06:52.330Z,21.02
2023-02-14T21:11:55.164Z,21.90
2023-02-14T21:16:59.309Z,21.67
2023-02-14T21:22:02.128Z,21.73
2023-02-14T21:27:05.093Z,23.00
2023-02-14T21:32:09.520Z,21.60
2023-02-14T21:37:12.991Z,23.33
2023-02-14T21:42:17.182Z,22.90
2023-02-14T21:47:21.307Z,21.90
2023-02-14T21:52:24.196Z,23.98
2023-02-14T21:57:27.039Z,23.90
2023-02-14T22:02:31.127Z,23.92
2023-02-14T22:07:33.948Z,24.23
2023-02-14T22:12:36.739Z,25.52
2023-02-14T22:17:40.853Z,24.17
2023-02-14T22:22:43.575Z,25.55
2023-02-14T22:27:46.314Z,27.13
2023-02-14T22:32:50.561Z,26.25
2023-02-14T22:37:53.560Z,27.55
2023-02-14T22:42:58.019Z,27.88
2023-02-14T22:48:02.117Z,27.85
2023-02-14T22:53:04.911Z,31.08
2023-02-14T22:58:09.088Z,28.20
2023-02-14T23:03:13.386Z,27.17
2023-02-14T23:08:16.419Z,25.30
2023-02-14T23:13:36.898Z,25.77
2023-02-14T23:18:58.497Z,24.58
2023-02-14T23:24:01.292Z,26.02
2023-02-14T23:29:04.298Z,26.15
2023-02-14T23:34:08.476Z,24.73
2023-02-14T23:39:11.541Z,26.50
2023-02-14T23:44:14.407Z,27.08
2023-02-14T23:49:18.756Z,27.17
2023-02-14T23:54:23.595Z,26.42
2023-02-14T23:59:26.325Z,30.08
